createdAt,value
2018-06-23T00:00:57.488Z,14.57
2018-06-23T00:03:29.793Z,7.30
2018-06-23T00:06:02.052Z,9.47
2018-06-23T00:08:33.908Z,8.37
2018-06-23T00:11:05.403Z,8.47
2018-06-23T00:13:36.998Z,8.77
2018-06-23T00:16:08.636Z,9.83
2018-06-23T00:18:43.381Z,11.33
2018-06-23T00:21:14.896Z,7.70
2018-06-23T00:23:46.125Z,9.27
2018-06-23T00:26:22.713Z,10.97
2018-06-23T00:28:56.242Z,11.77
2018-06-23T00:31:27.995Z,8.60
2018-06-23T00:33:59.923Z,9.63
2018-06-23T00:36:31.900Z,9.93
2018-06-23T00:39:03.583Z,6.83
2018-06-23T00:41:35.097Z,7.03
2018-06-23T00:44:06.841Z,10.27
2018-06-23T00:46:38.213Z,8.23
2018-06-23T00:49:09.542Z,7.63
2018-06-23T00:51:41.038Z,6.87
2018-06-23T00:54:12.546Z,9.23
2018-06-23T00:56:44.258Z,9.70
2018-06-23T00:59:32.742Z,8.10
2018-06-23T01:02:04.266Z,8.70
2018-06-23T01:04:36.200Z,6.67
2018-06-23T01:07:09.538Z,10.53
2018-06-23T01:09:41.141Z,5.73
2018-06-23T01:12:12.829Z,9.80
2018-06-23T01:14:44.488Z,8.67
2018-06-23T01:17:15.998Z,5.20
2018-06-23T01:19:47.698Z,9.90
2018-06-23T01:22:19.414Z,12.90
2018-06-23T01:24:50.934Z,7.10
2018-06-23T01:27:23.094Z,11.33
2018-06-23T01:29:54.640Z,7.67
2018-06-23T01:32:26.386Z,9.87
2018-06-23T01:34:58.054Z,8.97
2018-06-23T01:37:30.834Z,9.40
2018-06-23T01:40:02.901Z,8.63
2018-06-23T01:42:34.422Z,7.97
2018-06-23T01:45:06.397Z,10.97
2018-06-23T01:47:37.979Z,11.93
2018-06-23T01:50:09.893Z,7.87
2018-06-23T01:52:41.603Z,9.83
2018-06-23T01:55:13.618Z,13.03
2018-06-23T01:57:45.193Z,10.00
2018-06-23T02:00:16.788Z,11.43
2018-06-23T02:02:48.425Z,6.67
2018-06-23T02:05:20.053Z,10.07
2018-06-23T02:07:51.878Z,9.07
2018-06-23T02:10:23.507Z,10.83
2018-06-23T02:12:54.981Z,8.90
2018-06-23T02:15:31.929Z,8.33
2018-06-23T02:18:08.663Z,7.27
2018-06-23T02:20:45.582Z,8.03
2018-06-23T02:23:22.349Z,9.37
2018-06-23T02:25:59.158Z,8.10
2018-06-23T02:28:35.841Z,7.73
2018-06-23T02:31:12.643Z,8.83
2018-06-23T02:33:49.477Z,9.47
2018-06-23T02:36:21.043Z,8.53
2018-06-23T02:38:52.923Z,9.90
2018-06-23T02:41:28.528Z,7.30
2018-06-23T02:44:02.374Z,12.47
2018-06-23T02:46:34.198Z,9.80
2018-06-23T02:49:06.152Z,10.37
2018-06-23T02:51:38.078Z,8.90
2018-06-23T02:54:09.663Z,10.23
2018-06-23T02:56:40.943Z,9.60
2018-06-23T02:59:12.263Z,13.83
2018-06-23T03:01:44.528Z,13.27
2018-06-23T03:04:16.792Z,8.00
2018-06-23T03:06:48.705Z,12.73
2018-06-23T03:09:20.305Z,13.00
2018-06-23T03:11:52.370Z,8.20
2018-06-23T03:14:24.053Z,10.37
2018-06-23T03:16:56.279Z,8.13
2018-06-23T03:19:27.849Z,9.93
2018-06-23T03:21:59.922Z,8.13
2018-06-23T03:24:34.284Z,10.80
2018-06-23T03:27:06.273Z,7.63
2018-06-23T03:29:38.245Z,7.93
2018-06-23T03:32:10.582Z,9.03
2018-06-23T03:34:42.329Z,7.60
2018-06-23T03:37:13.929Z,9.23
2018-06-23T03:39:45.480Z,6.90
2018-06-23T03:42:17.156Z,11.70
2018-06-23T03:44:48.728Z,10.03
2018-06-23T03:47:20.649Z,9.37
2018-06-23T03:49:52.471Z,8.63
2018-06-23T03:52:24.086Z,6.63
2018-06-23T03:54:55.913Z,7.33
2018-06-23T03:57:27.424Z,6.73
2018-06-23T03:59:58.845Z,5.80
2018-06-23T04:02:30.373Z,8.80
2018-06-23T04:05:01.886Z,8.60
2018-06-23T04:07:33.665Z,7.67
2018-06-23T04:10:05.222Z,7.20
2018-06-23T04:12:36.722Z,9.57
2018-06-23T04:15:08.217Z,9.07
2018-06-23T04:17:39.704Z,10.03
2018-06-23T04:20:11.239Z,9.50
2018-06-23T04:22:42.846Z,12.83
2018-06-23T04:25:14.501Z,7.30
2018-06-23T04:27:46.521Z,11.03
2018-06-23T04:30:24.968Z,10.17
2018-06-23T04:32:56.484Z,8.40
2018-06-23T04:35:28.102Z,8.20
2018-06-23T04:37:59.617Z,8.40
2018-06-23T04:40:31.185Z,9.43
2018-06-23T04:43:03.144Z,7.77
2018-06-23T04:45:34.908Z,7.87
2018-06-23T04:48:06.325Z,12.83
2018-06-23T04:50:38.041Z,8.57
2018-06-23T04:53:09.579Z,8.10
2018-06-23T04:55:41.297Z,7.83
2018-06-23T04:58:12.818Z,7.00
2018-06-23T05:00:44.435Z,7.20
2018-06-23T05:03:16.552Z,7.30
2018-06-23T05:05:47.771Z,6.97
2018-06-23T05:08:19.361Z,10.67
2018-06-23T05:10:50.871Z,7.90
2018-06-23T05:13:22.781Z,9.90
2018-06-23T05:15:54.398Z,7.37
2018-06-23T05:18:26.028Z,7.37
2018-06-23T05:20:57.628Z,12.37
2018-06-23T05:23:29.291Z,11.30
2018-06-23T05:26:01.306Z,7.53
2018-06-23T05:28:33.115Z,9.60
2018-06-23T05:31:05.069Z,8.40
2018-06-23T05:33:37.031Z,7.33
2018-06-23T05:36:08.790Z,8.13
2018-06-23T05:38:40.437Z,6.93
2018-06-23T05:41:12.042Z,6.77
2018-06-23T05:43:43.795Z,7.47
2018-06-23T05:46:15.043Z,5.77
2018-06-23T05:48:46.682Z,8.37
2018-06-23T05:51:18.236Z,8.10
2018-06-23T05:53:49.979Z,6.90
2018-06-23T05:56:21.663Z,6.90
2018-06-23T05:58:53.591Z,8.07
2018-06-23T06:01:26.306Z,8.67
2018-06-23T06:03:59.292Z,12.10
2018-06-23T06:06:32.157Z,6.47
2018-06-23T06:09:05.832Z,7.93
2018-06-23T06:11:38.695Z,9.10
2018-06-23T06:14:11.191Z,6.13
2018-06-23T06:17:48.479Z,5.30
2018-06-23T06:20:21.422Z,7.67
2018-06-23T06:22:53.914Z,8.20
2018-06-23T06:25:26.877Z,6.57
2018-06-23T06:27:59.481Z,6.40
2018-06-23T06:30:31.677Z,11.97
2018-06-23T06:33:03.694Z,12.10
2018-06-23T06:35:35.437Z,8.33
2018-06-23T06:38:07.274Z,6.97
2018-06-23T06:40:38.721Z,9.00
2018-06-23T06:43:10.283Z,8.00
2018-06-23T06:45:41.763Z,6.93
2018-06-23T06:48:13.871Z,7.27
2018-06-23T06:50:45.308Z,6.70
2018-06-23T06:53:17.185Z,7.33
2018-06-23T06:55:48.941Z,10.47
2018-06-23T06:58:20.679Z,9.67
2018-06-23T07:00:52.873Z,9.77
2018-06-23T07:03:24.565Z,8.50
2018-06-23T07:05:56.798Z,7.87
2018-06-23T07:08:28.465Z,9.80
2018-06-23T07:11:00.046Z,8.67
2018-06-23T07:13:32.044Z,7.17
2018-06-23T07:16:03.607Z,10.47
2018-06-23T07:18:35.152Z,8.10
2018-06-23T07:21:07.701Z,6.70
2018-06-23T07:23:39.814Z,5.60
2018-06-23T07:26:11.464Z,6.97
2018-06-23T07:28:43.603Z,6.47
2018-06-23T07:31:15.469Z,8.80
2018-06-23T07:33:48.061Z,7.33
2018-06-23T07:36:19.990Z,10.90
2018-06-23T07:38:51.968Z,8.23
2018-06-23T07:41:23.604Z,11.63
2018-06-23T07:43:55.570Z,9.47
2018-06-23T07:46:27.799Z,9.00
2018-06-23T07:48:59.846Z,7.90
2018-06-23T07:51:32.102Z,6.50
2018-06-23T07:54:03.840Z,8.47
2018-06-23T07:56:35.578Z,7.33
2018-06-23T07:59:07.074Z,8.63
2018-06-23T08:01:38.665Z,7.63
2018-06-23T08:04:10.641Z,8.40
2018-06-23T08:06:42.207Z,6.03
2018-06-23T08:09:13.826Z,7.27
2018-06-23T08:11:45.629Z,11.00
2018-06-23T08:14:17.553Z,7.43
2018-06-23T08:16:49.081Z,9.93
2018-06-23T08:19:21.215Z,6.40
2018-06-23T08:21:53.167Z,8.50
2018-06-23T08:24:25.005Z,8.80
2018-06-23T08:26:56.572Z,6.07
2018-06-23T08:29:28.318Z,6.53
2018-06-23T08:32:00.159Z,7.10
2018-06-23T08:34:32.356Z,6.90
2018-06-23T08:37:04.322Z,5.63
2018-06-23T08:39:36.008Z,8.33
2018-06-23T08:42:08.167Z,7.97
2018-06-23T08:44:39.963Z,5.43
2018-06-23T08:47:11.679Z,7.37
2018-06-23T08:49:43.412Z,4.23
2018-06-23T08:52:15.279Z,6.20
2018-06-23T08:54:47.001Z,5.60
2018-06-23T08:57:19.503Z,5.03
2018-06-23T08:59:51.938Z,4.53
2018-06-23T09:02:23.702Z,6.77
2018-06-23T09:04:55.673Z,5.90
2018-06-23T09:07:27.073Z,4.07
2018-06-23T09:09:58.998Z,6.73
2018-06-23T09:12:30.977Z,4.13
2018-06-23T09:15:03.059Z,6.27
2018-06-23T09:17:35.034Z,5.73
2018-06-23T09:20:07.209Z,4.77
2018-06-23T09:22:39.670Z,6.07
2018-06-23T09:25:11.565Z,7.27
2018-06-23T09:27:43.662Z,33.73
2018-06-23T09:30:15.221Z,8.17
2018-06-23T09:32:47.559Z,6.83
2018-06-23T09:35:19.934Z,9.23
2018-06-23T09:37:51.897Z,8.73
2018-06-23T09:40:23.400Z,7.17
2018-06-23T09:42:55.479Z,5.53
2018-06-23T09:45:27.655Z,5.67
2018-06-23T09:47:59.315Z,4.70
2018-06-23T09:50:31.109Z,8.67
2018-06-23T09:53:03.140Z,4.67
2018-06-23T09:55:34.706Z,5.77
2018-06-23T09:58:06.501Z,5.37
2018-06-23T10:00:38.459Z,9.30
2018-06-23T10:03:10.208Z,5.97
2018-06-23T10:05:42.806Z,4.63
2018-06-23T10:08:15.339Z,4.90
2018-06-23T10:10:47.400Z,8.33
2018-06-23T10:13:19.057Z,8.33
2018-06-23T10:15:50.957Z,4.63
2018-06-23T10:18:22.922Z,5.30
2018-06-23T10:20:55.002Z,5.93
2018-06-23T10:23:26.583Z,6.63
2018-06-23T10:25:58.405Z,7.27
2018-06-23T10:28:29.780Z,4.63
2018-06-23T10:31:01.322Z,4.97
2018-06-23T10:33:32.848Z,6.43
2018-06-23T10:36:06.022Z,5.83
2018-06-23T10:38:37.516Z,5.13
2018-06-23T10:41:09.240Z,6.27
2018-06-23T10:43:41.435Z,6.07
2018-06-23T10:46:13.014Z,5.20
2018-06-23T10:48:45.124Z,5.70
2018-06-23T10:51:16.790Z,6.40
2018-06-23T10:53:48.287Z,5.80
2018-06-23T10:56:20.075Z,6.87
2018-06-23T10:58:52.112Z,2.73
2018-06-23T11:01:23.630Z,4.77
2018-06-23T11:03:55.174Z,4.43
2018-06-23T11:06:27.127Z,5.17
2018-06-23T11:08:59.020Z,7.67
2018-06-23T11:11:30.731Z,5.33
2018-06-23T11:14:02.572Z,5.03
2018-06-23T11:16:34.197Z,3.87
2018-06-23T11:19:05.866Z,3.40
2018-06-23T11:21:38.036Z,3.60
2018-06-23T11:24:09.773Z,6.30
2018-06-23T11:26:41.298Z,4.40
2018-06-23T11:29:13.363Z,4.57
2018-06-23T11:31:44.937Z,7.17
2018-06-23T11:34:16.081Z,3.63
2018-06-23T11:36:47.977Z,3.57
2018-06-23T11:39:19.529Z,4.33
2018-06-23T11:41:51.333Z,3.67
2018-06-23T11:44:23.141Z,3.20
2018-06-23T11:46:54.729Z,2.90
2018-06-23T11:49:26.502Z,4.27
2018-06-23T11:51:58.104Z,3.13
2018-06-23T11:54:29.914Z,8.73
2018-06-23T11:57:02.014Z,5.33
2018-06-23T11:59:33.788Z,4.93
2018-06-23T12:02:05.551Z,4.17
2018-06-23T12:04:37.094Z,3.87
2018-06-23T12:07:09.227Z,5.87
2018-06-23T12:09:41.019Z,3.80
2018-06-23T12:12:12.336Z,4.93
2018-06-23T12:14:44.069Z,4.13
2018-06-23T12:17:15.735Z,4.20
2018-06-23T12:19:47.575Z,4.77
2018-06-23T12:22:18.806Z,5.50
2018-06-23T12:24:50.409Z,6.03
2018-06-23T12:27:22.153Z,5.90
2018-06-23T12:29:53.717Z,4.87
2018-06-23T12:32:25.282Z,3.60
2018-06-23T12:34:56.852Z,7.20
2018-06-23T12:37:31.364Z,4.53
2018-06-23T12:40:02.979Z,5.77
2018-06-23T12:42:34.635Z,4.20
2018-06-23T12:45:07.872Z,2.77
2018-06-23T12:47:39.796Z,5.87
2018-06-23T12:50:11.809Z,4.27
2018-06-23T12:52:43.654Z,4.87
2018-06-23T12:55:15.911Z,5.67
2018-06-23T12:57:48.547Z,4.50
2018-06-23T13:00:20.174Z,4.93
2018-06-23T13:02:51.915Z,5.67
2018-06-23T13:05:23.791Z,4.63
2018-06-23T13:07:55.916Z,4.57
2018-06-23T13:10:27.600Z,5.20
2018-06-23T13:12:59.162Z,4.77
2018-06-23T13:15:31.863Z,5.17
2018-06-23T13:18:04.386Z,5.33
2018-06-23T13:20:35.780Z,7.37
2018-06-23T13:23:07.738Z,3.53
2018-06-23T13:25:39.765Z,2.70
2018-06-23T13:28:11.380Z,3.80
2018-06-23T13:30:42.939Z,4.33
2018-06-23T13:33:14.447Z,4.53
2018-06-23T13:35:46.363Z,8.13
2018-06-23T13:38:18.420Z,2.43
2018-06-23T13:40:49.989Z,5.67
2018-06-23T13:43:21.763Z,3.17
2018-06-23T13:45:53.326Z,4.97
2018-06-23T13:48:27.805Z,4.80
2018-06-23T13:50:59.444Z,3.30
2018-06-23T13:53:31.463Z,4.03
2018-06-23T13:56:03.313Z,4.33
2018-06-23T13:58:35.431Z,3.67
2018-06-23T14:01:07.818Z,2.93
2018-06-23T14:03:39.911Z,2.80
2018-06-23T14:06:11.568Z,3.80
2018-06-23T14:08:45.098Z,3.57
2018-06-23T14:11:17.444Z,3.53
2018-06-23T14:13:49.380Z,3.30
2018-06-23T14:16:21.018Z,2.80
2018-06-23T14:18:52.600Z,2.03
2018-06-23T14:21:24.160Z,4.97
2018-06-23T14:23:55.706Z,5.20
2018-06-23T14:26:27.635Z,4.30
2018-06-23T14:28:59.544Z,4.33
2018-06-23T14:31:32.584Z,4.60
2018-06-23T14:34:04.632Z,4.37
2018-06-23T14:36:36.670Z,3.73
2018-06-23T14:39:12.092Z,4.73
2018-06-23T14:41:43.333Z,4.40
2018-06-23T14:44:15.282Z,5.97
2018-06-23T14:46:46.937Z,5.83
2018-06-23T14:49:19.746Z,4.27
2018-06-23T14:51:52.945Z,3.43
2018-06-23T14:54:26.632Z,3.93
2018-06-23T14:56:59.075Z,1.70
2018-06-23T14:59:31.719Z,5.73
2018-06-23T15:02:07.303Z,3.73
2018-06-23T15:04:40.369Z,1.50
2018-06-23T15:07:13.508Z,2.43
2018-06-23T15:10:02.576Z,2.63
2018-06-23T15:13:42.315Z,2.77
2018-06-23T15:16:15.101Z,1.90
2018-06-23T15:18:49.529Z,2.10
2018-06-23T15:21:22.612Z,2.60
2018-06-23T15:23:55.329Z,3.77
2018-06-23T15:26:27.901Z,3.30
2018-06-23T15:29:00.268Z,3.40
2018-06-23T15:31:32.856Z,2.57
2018-06-23T15:34:06.697Z,2.27
2018-06-23T15:36:39.948Z,3.53
2018-06-23T15:39:12.771Z,2.67
2018-06-23T15:41:45.324Z,3.30
2018-06-23T15:44:18.767Z,3.92
2018-06-23T15:46:51.651Z,3.87
2018-06-23T15:49:24.595Z,3.90
2018-06-23T15:51:57.464Z,3.40
2018-06-23T15:54:30.401Z,2.43
2018-06-23T15:57:02.771Z,3.07
2018-06-23T15:59:35.994Z,3.50
2018-06-23T16:02:08.821Z,4.20
2018-06-23T16:04:41.202Z,2.53
2018-06-23T16:07:12.781Z,4.87
2018-06-23T16:09:45.370Z,3.53
2018-06-23T16:12:18.442Z,2.80
2018-06-23T16:14:51.848Z,4.73
2018-06-23T16:17:24.985Z,3.87
2018-06-23T16:19:57.963Z,4.97
2018-06-23T16:22:30.721Z,6.13
2018-06-23T16:25:03.857Z,4.97
2018-06-23T16:27:36.721Z,3.43
2018-06-23T16:30:09.895Z,3.13
2018-06-23T16:32:42.601Z,3.33
2018-06-23T16:35:15.447Z,2.97
2018-06-23T16:37:48.614Z,3.77
2018-06-23T16:40:21.952Z,3.07
2018-06-23T16:42:54.656Z,2.43
2018-06-23T16:45:27.626Z,3.63
2018-06-23T16:48:00.050Z,3.77
2018-06-23T16:50:33.129Z,2.47
2018-06-23T16:53:05.834Z,4.47
2018-06-23T16:55:38.000Z,2.03
2018-06-23T16:58:10.364Z,6.63
2018-06-23T17:00:43.432Z,2.63
2018-06-23T17:03:16.553Z,1.50
2018-06-23T17:05:48.909Z,2.13
2018-06-23T17:08:21.446Z,1.67
2018-06-23T17:10:54.378Z,4.33
2018-06-23T17:13:27.249Z,3.77
2018-06-23T17:15:59.278Z,3.50
2018-06-23T17:18:31.888Z,5.33
2018-06-23T17:21:04.567Z,3.87
2018-06-23T17:23:37.630Z,4.57
2018-06-23T17:26:10.491Z,3.13
2018-06-23T17:28:42.486Z,4.00
2018-06-23T17:31:14.399Z,3.60
2018-06-23T17:33:47.058Z,3.30
2018-06-23T17:36:20.126Z,2.07
2018-06-23T17:38:52.502Z,2.87
2018-06-23T17:41:25.224Z,3.30
2018-06-23T17:43:57.661Z,3.07
2018-06-23T17:46:30.235Z,3.50
2018-06-23T17:49:01.636Z,1.73
2018-06-23T17:51:33.923Z,3.10
2018-06-23T17:54:09.014Z,3.03
2018-06-23T17:56:40.670Z,2.13
2018-06-23T17:59:12.613Z,1.87
2018-06-23T18:01:44.645Z,2.67
2018-06-23T18:04:16.475Z,2.67
2018-06-23T18:06:47.918Z,2.40
2018-06-23T18:09:19.449Z,2.50
2018-06-23T18:11:51.217Z,3.00
2018-06-23T18:14:23.033Z,3.70
2018-06-23T18:16:54.926Z,2.53
2018-06-23T18:19:27.224Z,5.07
2018-06-23T18:21:59.936Z,3.57
2018-06-23T18:24:31.593Z,5.43
2018-06-23T18:27:03.458Z,3.60
2018-06-23T18:29:34.944Z,3.03
2018-06-23T18:32:06.920Z,2.80
2018-06-23T18:34:38.546Z,2.97
2018-06-23T18:37:10.304Z,3.73
2018-06-23T18:39:41.977Z,2.60
2018-06-23T18:42:13.726Z,2.00
2018-06-23T18:44:45.585Z,6.57
2018-06-23T18:47:17.586Z,2.70
2018-06-23T18:49:49.459Z,2.70
2018-06-23T18:52:21.109Z,5.23
2018-06-23T18:54:53.087Z,3.17
2018-06-23T18:57:25.111Z,2.67
2018-06-23T18:59:56.781Z,2.67
2018-06-23T19:02:28.606Z,2.83
2018-06-23T19:05:00.210Z,2.30
2018-06-23T19:07:34.780Z,3.13
2018-06-23T19:10:06.862Z,2.97
2018-06-23T19:12:38.524Z,4.90
2018-06-23T19:15:10.061Z,3.30
2018-06-23T19:17:48.428Z,3.63
2018-06-23T19:20:20.927Z,4.03
2018-06-23T19:22:54.669Z,4.40
2018-06-23T19:25:27.029Z,2.60
2018-06-23T19:27:59.002Z,6.30
2018-06-23T19:30:31.016Z,2.80
2018-06-23T19:33:03.277Z,4.00
2018-06-23T19:35:35.097Z,3.83
2018-06-23T19:38:06.725Z,3.00
2018-06-23T19:40:39.029Z,4.93
2018-06-23T19:43:10.714Z,4.53
2018-06-23T19:45:42.693Z,3.33
2018-06-23T19:48:15.098Z,3.87
2018-06-23T19:50:47.008Z,2.53
2018-06-23T19:53:19.396Z,4.70
2018-06-23T19:55:51.106Z,2.17
2018-06-23T19:58:22.468Z,2.83
2018-06-23T20:00:53.963Z,3.53
2018-06-23T20:03:25.987Z,3.73
2018-06-23T20:05:59.214Z,3.20
2018-06-23T20:08:34.012Z,3.27
2018-06-23T20:11:06.509Z,2.83
2018-06-23T20:13:38.220Z,3.90
2018-06-23T20:16:09.899Z,4.27
2018-06-23T20:18:41.666Z,4.60
2018-06-23T20:21:13.401Z,3.53
2018-06-23T20:23:45.190Z,4.23
2018-06-23T20:26:17.506Z,4.13
2018-06-23T20:28:49.404Z,3.10
2018-06-23T20:31:21.098Z,5.00
2018-06-23T20:33:53.202Z,5.30
2018-06-23T20:36:24.655Z,6.07
2018-06-23T20:38:56.100Z,6.33
2018-06-23T20:41:27.791Z,6.47
2018-06-23T20:44:00.304Z,7.13
2018-06-23T20:46:32.055Z,6.77
2018-06-23T20:49:04.126Z,4.83
2018-06-23T20:51:36.145Z,5.80
2018-06-23T20:54:08.258Z,8.60
2018-06-23T20:56:39.739Z,6.10
2018-06-23T20:59:11.722Z,5.20
2018-06-23T21:01:43.453Z,4.87
2018-06-23T21:04:15.712Z,5.60
2018-06-23T21:06:47.274Z,5.33
2018-06-23T21:09:18.975Z,5.07
2018-06-23T21:11:51.099Z,4.20
2018-06-23T21:14:22.930Z,4.30
2018-06-23T21:16:54.861Z,4.63
2018-06-23T21:19:27.323Z,7.30
2018-06-23T21:22:00.430Z,5.30
2018-06-23T21:24:33.206Z,5.30
2018-06-23T21:27:06.777Z,5.77
2018-06-23T21:29:39.687Z,7.13
2018-06-23T21:32:12.555Z,6.03
2018-06-23T21:34:45.545Z,6.17
2018-06-23T21:37:17.764Z,5.77
2018-06-23T21:39:50.054Z,7.00
2018-06-23T21:42:22.431Z,5.73
2018-06-23T21:44:55.318Z,3.63
2018-06-23T21:47:28.023Z,4.97
2018-06-23T21:50:00.914Z,6.00
2018-06-23T21:52:34.376Z,3.17
2018-06-23T21:55:08.621Z,3.47
2018-06-23T21:57:41.139Z,3.70
2018-06-23T22:00:45.968Z,4.50
2018-06-23T22:03:18.337Z,4.97
2018-06-23T22:05:51.135Z,4.97
2018-06-23T22:08:24.048Z,3.47
2018-06-23T22:10:57.092Z,3.10
2018-06-23T22:13:29.829Z,3.60
2018-06-23T22:16:02.450Z,2.73
2018-06-23T22:18:35.255Z,4.37
2018-06-23T22:21:07.830Z,6.10
2018-06-23T22:23:39.746Z,5.67
2018-06-23T22:26:11.445Z,3.20
2018-06-23T22:28:42.997Z,4.47
2018-06-23T22:31:15.048Z,4.03
2018-06-23T22:33:46.675Z,3.23
2018-06-23T22:36:18.719Z,4.53
2018-06-23T22:38:50.337Z,4.13
2018-06-23T22:41:21.854Z,4.10
2018-06-23T22:43:53.469Z,3.47
2018-06-23T22:46:25.028Z,4.30
2018-06-23T22:48:56.589Z,3.63
2018-06-23T22:51:28.093Z,3.50
2018-06-23T22:53:59.949Z,4.67
2018-06-23T22:56:32.409Z,3.30
2018-06-23T22:59:03.980Z,2.70
2018-06-23T23:01:35.626Z,4.07
2018-06-23T23:04:07.531Z,4.83
2018-06-23T23:06:38.917Z,5.00
2018-06-23T23:09:11.166Z,3.67
2018-06-23T23:11:42.933Z,4.70
2018-06-23T23:14:15.357Z,3.23
2018-06-23T23:16:47.079Z,3.30
2018-06-23T23:19:18.575Z,3.30
2018-06-23T23:21:50.875Z,3.73
2018-06-23T23:24:22.358Z,4.23
2018-06-23T23:26:53.482Z,3.57
2018-06-23T23:29:24.971Z,3.77
2018-06-23T23:31:56.506Z,3.27
2018-06-23T23:34:28.045Z,3.77
2018-06-23T23:36:59.271Z,4.70
2018-06-23T23:39:30.360Z,4.80
2018-06-23T23:42:02.826Z,3.40
2018-06-23T23:44:34.738Z,3.47
2018-06-23T23:47:06.402Z,3.20
2018-06-23T23:49:38.121Z,4.33
2018-06-23T23:52:09.676Z,4.00
2018-06-23T23:54:41.168Z,3.93
2018-06-23T23:57:19.276Z,2.77
2018-06-23T23:59:50.899Z,3.93
